• Join FlightAware (Why Join?)
  • Login
  • US Flag 
03:58PM EDT


 

Airport Tracker/Info


-or-


 

Live Flight TrackerFlight Track Log ✈ UAL571 ✈ 22-May-2013 ✈ KEWR - KSNA

Flight Track Log - Related Links

Times and Time Zones

All times are in EDT time to prevent confusion due to time zone crossing. See the UAL571 flight status page for this flight to view local times or setup timezone preferences in your user account.

Time Position Orientation Groundspeed Altitude Reporting Facility
EDT Latitude Longitude Course Direction KTS MPH feet Rate Location/Type
07:22AM 40.6167 -74.1833 246° West 211 243 2,000  Level New York TRACON
07:23AM 40.5833 -74.2500 237° Southwest 268 308 4,000 2,520 Climbing New York TRACON
07:24AM 40.6167 -74.3333 298° West 268 308 7,000 2,820 Climbing New York TRACON
07:25AM 40.6500 -74.4167 298° West 273 314 9,600 1,980 Climbing New York TRACON
07:26AM 40.7861 -75.1723 252° West  Level FlightAware Approximate
07:26AM 40.7000 -74.5000 308° West 315 362 11,000  Level New York TRACON
07:27AM 40.7660 -75.3187 246° West  Level FlightAware Approximate
07:27AM 40.7833 -74.5833 323° Northwest 350 403 12,900  Level New York TRACON
07:28AM 40.8533 -74.6778 314° West 385 443 15,100 1,860 Climbing New York Center
07:29AM 40.8475 -74.7897 266° West 320 368 16,800 1,740 Climbing New York Center
07:30AM 40.8156 -74.9250 253° West 350 403 18,600 1,440 Climbing New York Center
07:31AM 40.7886 -75.0386 253° West 363 418 19,800 1,200 Climbing New York Center
07:32AM 40.7567 -75.1733 253° West 377 434 21,100 1,200 Climbing New York Center
07:33AM 40.7242 -75.3139 253° West 388 447 22,300 1,200 Climbing New York Center
07:34AM 40.6917 -75.4511 253° West 393 452 23,500 1,140 Climbing New York Center
07:35AM 40.6567 -75.5967 252° West 404 465 24,600 1,020 Climbing New York Center
07:36AM 40.6217 -75.7389 252° West 409 471 25,600 900 Climbing New York Center
07:37AM 40.5800 -75.8864 250° West 422 486 26,500 900 Climbing New York Center
07:38AM 40.5167 -76.0428 242° Southwest 433 498 27,500 900 Climbing New York Center
07:39AM 40.4603 -76.1883 243° Southwest 438 504 28,400 840 Climbing New York Center
07:40AM 40.4036 -76.3311 243° Southwest 443 510 29,300 660 Climbing New York Center
07:41AM 40.3508 -76.4767 245° Southwest 443 510 29,800 780 Climbing New York Center
07:42AM 40.3228 -76.6214 256° West 443 510 30,900 960 Climbing New York Center
07:43AM 40.2839 -76.7761 252° West 448 516 31,800 960 Climbing New York Center
07:44AM 40.2447 -76.9278 251° West 448 516 32,900 660 Climbing New York Center
07:46AM 40.1583 -77.2578 251° West 444 511 34,000 300 Climbing Cleveland Center
07:47AM 40.1208 -77.4064 252° West 438 504 34,000  Level Cleveland Center
07:48AM 40.1064 -77.5619 263° West 438 504 34,000  Level Cleveland Center
07:49AM 40.1125 -77.7192 273° West 433 498 34,000  Level Cleveland Center
07:50AM 40.1164 -77.8764 272° West 433 498 34,000  Level Cleveland Center
07:51AM 40.1178 -78.0339 271° West 438 504 34,000  Level Cleveland Center
07:52AM 40.1192 -78.1939 271° West 438 504 34,000  Level Cleveland Center
07:53AM 40.1244 -78.3539 273° West 438 504 34,000  Level Cleveland Center
07:54AM 40.1275 -78.5086 272° West 438 504 34,000  Level Cleveland Center
07:55AM 40.1303 -78.6633 271° West 438 504 34,000  Level Cleveland Center
07:56AM 40.1328 -78.8181 271° West 438 504 34,000  Level Cleveland Center
07:57AM 40.1372 -78.9753 272° West 438 504 34,000  Level Cleveland Center
07:58AM 40.1414 -79.1303 272° West 438 504 34,000 -60 Level Cleveland Center
07:59AM 40.1431 -79.2850 271° West 438 504 33,900  Descending Cleveland Center
08:00AM 40.1489 -79.4261 273° West 438 504 34,000  Climbing Cleveland Center
08:01AM 40.1503 -79.5808 271° West 438 504 34,000  Level Cleveland Center
08:02AM 40.1517 -79.7411 271° West 438 504 34,000  Level Cleveland Center
08:03AM 40.1528 -79.8958 271° West 438 504 34,000  Level Cleveland Center
08:04AM 40.1536 -80.0725 270° West 443 510 34,000  Level Cleveland Center
08:05AM 40.1542 -80.2300 270° West 442 509 34,000  Level Cleveland Center
08:06AM 40.1567 -80.3686 271° West 436 502 34,000  Level Cleveland Center
08:07AM 40.1589 -80.5233 271° West 436 502 34,000  Level Cleveland Center
08:08AM 40.1608 -80.6808 271° West 436 502 34,000  Level Cleveland Center
08:09AM 40.1606 -80.8383 270° West 436 502 34,000  Level Cleveland Center
08:10AM 40.1603 -80.9961 270° West 436 502 34,000  Level Cleveland Center
08:12AM 40.1572 -81.2611 269° West 435 501 34,000  Level Indianapolis Center
08:13AM 40.1575 -81.4200 270° West 434 499 34,000  Level Indianapolis Center
08:14AM 40.1569 -81.5797 270° West 434 499 34,000  Level Indianapolis Center
08:15AM 40.1558 -81.7389 270° West 434 499 34,000 -60 Level Indianapolis Center
08:16AM 40.1547 -81.9031 270° West 431 496 33,900 -60 Descending Indianapolis Center
08:17AM 40.1536 -82.0597 270° West 429 494 33,900  Level Indianapolis Center
08:18AM 40.1525 -82.2167 270° West 430 495 33,900  Level Indianapolis Center
08:19AM 40.1508 -82.3736 269° West 428 493 33,900  Level Indianapolis Center
08:20AM 40.1492 -82.5294 269° West 426 490 33,900 -420 Level Indianapolis Center
08:21AM 40.1475 -82.6853 269° West 427 491 33,100 -1,020 Descending Indianapolis Center
08:22AM 40.1439 -82.8683 269° West 431 496 31,900 -600 Descending Indianapolis Center
08:23AM 40.1425 -83.0281 269° West 437 503 31,900  Level Indianapolis Center
08:24AM 40.1392 -83.1853 268° West 434 499 31,900  Level Indianapolis Center
08:25AM 40.1369 -83.3419 269° West 433 498 31,900  Level Indianapolis Center
08:26AM 40.1333 -83.4986 268° West 433 498 31,900  Level Indianapolis Center
08:27AM 40.1300 -83.6547 268° West 432 497 31,900  Level Indianapolis Center
08:28AM 40.1256 -83.8367 268° West 430 495 31,900  Level Indianapolis Center
08:29AM 40.1217 -83.9919 268° West 427 491 31,900  Level Indianapolis Center
08:30AM 40.1189 -84.1478 269° West 426 490 31,900  Level Indianapolis Center
08:31AM 40.1144 -84.3039 268° West 428 493 31,900  Level Indianapolis Center
08:32AM 40.1089 -84.4608 267° West 431 496 31,900  Level Indianapolis Center
08:33AM 40.1039 -84.6183 268° West 431 496 31,900  Level Indianapolis Center
08:34AM 40.1003 -84.7753 268° West 431 496 31,900  Level Indianapolis Center
08:35AM 40.0944 -84.9433 267° West 432 497 32,000  Climbing Indianapolis Center
08:36AM 40.0883 -85.0992 267° West 432 497 32,000 180 Level Indianapolis Center
08:37AM 40.0836 -85.2550 268° West 432 497 32,400 540 Climbing Indianapolis Center
08:38AM 40.0778 -85.4108 267° West 433 498 33,200 780 Climbing Indianapolis Center
08:39AM 40.0708 -85.5969 267° West 429 494 34,000 360 Climbing Indianapolis Center
08:40AM 40.0644 -85.7486 267° West 423 487 34,000  Level Indianapolis Center
08:42AM 40.0569 -85.9333 267° West 427 491 34,000  Level Indianapolis Center
08:43AM 40.0508 -86.0844 267° West 423 487 34,000 -60 Level Indianapolis Center
08:44AM 40.0442 -86.2350 267° West 422 486 33,900  Descending Indianapolis Center
08:45AM 40.0358 -86.4161 267° West 424 488 34,000  Climbing Indianapolis Center
08:46AM 40.0300 -86.5681 267° West 424 488 34,000  Level Indianapolis Center
08:47AM 40.0214 -86.7203 266° West 425 489 34,000  Level Indianapolis Center
08:48AM 40.0142 -86.8722 266° West 425 489 34,000  Level Indianapolis Center
08:49AM 40.0067 -87.0242 266° West 423 487 34,000  Level Indianapolis Center
08:50AM 39.9981 -87.1767 266° West 423 487 34,000  Level Indianapolis Center
08:51AM 39.9886 -87.3600 266° West 425 489 34,000  Level Indianapolis Center
08:52AM 39.9800 -87.5144 266° West 427 491 34,000  Level Indianapolis Center
08:53AM 39.9714 -87.6375 265° West 426 490 34,000  Level Chicago Center
08:54AM 39.9642 -87.7892 266° West 423 487 34,000 -60 Level Chicago Center
08:55AM 39.9547 -87.9414 265° West 422 486 33,900  Descending Chicago Center
08:56AM 39.9456 -88.0914 265° West 419 482 34,000  Climbing Chicago Center
08:57AM 39.9372 -88.2378 266° West 417 480 34,000  Level Chicago Center
08:58AM 39.9292 -88.3878 266° West 415 478 34,000 -60 Level Chicago Center
08:59AM 39.9164 -88.5697 265° West 418 481 33,900  Descending Chicago Center
09:00AM 39.9056 -88.7225 265° West 422 486 34,000  Climbing Chicago Center
09:01AM 39.8958 -88.8756 265° West 423 487 34,000  Level Chicago Center
09:02AM 39.8847 -89.0267 265° West 421 484 34,000  Level Chicago Center
09:03AM 39.8711 -89.2400 265° West 422 486 34,000  Level Kansas City Center
09:04AM 39.8594 -89.3919 264° West 421 484 34,000  Level Kansas City Center
09:05AM 39.8486 -89.5431 265° West 420 483 34,000  Level Kansas City Center
09:06AM 39.8419 -89.6969 267° West 422 486 34,000  Level Kansas City Center
09:07AM 39.8589 -89.8544 278° West 437 503 34,000  Level Kansas City Center
09:08AM 39.8772 -90.0117 279° West 440 506 34,000 -60 Level Kansas City Center
09:09AM 39.8942 -90.1678 278° West 436 502 33,900 -60 Descending Kansas City Center
09:10AM 39.9106 -90.3222 278° West 433 498 33,900  Level Kansas City Center
09:11AM 39.9272 -90.4781 278° West 432 497 34,000  Climbing Kansas City Center
09:12AM 39.9444 -90.6347 278° West 433 498 34,000  Level Kansas City Center
09:13AM 39.9650 -90.8175 278° West 427 491 34,000  Level Kansas City Center
09:15AM 39.9792 -90.9689 277° West 422 486 34,000  Level Kansas City Center
09:16AM 39.9936 -91.1158 277° West 417 480 34,000  Level Kansas City Center
09:17AM 40.0092 -91.2658 278° West 419 482 34,000  Level Kansas City Center
09:18AM 40.0247 -91.4175 278° West 422 486 34,000  Level Kansas City Center
09:19AM 40.0397 -91.5706 277° West 427 491 34,000  Level Kansas City Center
09:20AM 40.0575 -91.7533 277° West 427 491 34,000  Level Kansas City Center
09:21AM 40.0714 -91.9058 277° West 427 491 34,000 -60 Level Kansas City Center
09:22AM 40.0861 -92.0586 277° West 427 491 33,900  Descending Kansas City Center
09:23AM 40.1006 -92.2119 277° West 427 491 34,000  Climbing Kansas City Center
09:24AM 40.1161 -92.3781 277° West 428 493 34,000  Level Kansas City Center
09:25AM 40.1294 -92.5253 277° West 427 491 34,000  Level Kansas City Center
09:26AM 40.1386 -92.6967 274° West 426 490 34,000 -60 Level Kansas City Center
09:27AM 40.1422 -92.8439 272° West 424 488 33,900  Descending Kansas City Center
09:28AM 40.1486 -93.0150 273° West 423 487 34,000  Climbing Kansas City Center
09:29AM 40.1528 -93.1706 272° West 425 489 34,000  Level Kansas City Center
09:30AM 40.1572 -93.3242 272° West 425 489 34,000  Level Kansas City Center
09:31AM 40.1608 -93.4772 272° West 426 490 34,000  Level Kansas City Center
09:32AM 40.1644 -93.6317 272° West 427 491 34,000  Level Kansas City Center
09:33AM 40.1689 -93.7844 272° West 426 490 34,000  Level Kansas City Center
09:34AM 40.1736 -93.9667 272° West 422 486 34,000 -60 Level Kansas City Center
09:35AM 40.1756 -94.1178 271° West 417 480 33,900  Descending Kansas City Center
09:36AM 40.1781 -94.2597 271° West 412 474 34,000  Climbing Kansas City Center
09:37AM 40.1825 -94.4286 272° West 417 480 34,000  Level Kansas City Center
09:38AM 40.1844 -94.5736 271° West 417 480 34,000  Level Kansas City Center
09:39AM 40.1878 -94.7436 272° West 420 483 34,000  Level Kansas City Center
09:40AM 40.1892 -94.8900 271° West 421 484 34,000  Level Kansas City Center
09:42AM 40.1897 -95.0903 270° West 420 483 34,000  Level Minneapolis Center
09:43AM 40.1919 -95.2411 271° West 417 480 34,000 -60 Level Minneapolis Center
09:44AM 40.1944 -95.4197 271° West 411 473 33,900 -60 Descending Minneapolis Center
09:45AM 40.1953 -95.5719 270° West 415 478 33,900  Level Minneapolis Center
09:46AM 40.1969 -95.7231 271° West 415 478 34,000  Climbing Minneapolis Center
09:47AM 40.1983 -95.8464 271° West 419 482 34,000  Level Minneapolis Center
09:48AM 40.1994 -96.0289 271° West 418 481 34,000  Level Minneapolis Center
09:49AM 40.1986 -96.2131 270° West 420 483 34,000  Level Minneapolis Center
09:50AM 40.1794 -96.3642 261° West 419 482 34,000 -60 Level Minneapolis Center
09:51AM 40.1614 -96.5147 261° West 419 482 33,900  Descending Minneapolis Center
09:52AM 40.1461 -96.6328 260° West 415 478 34,000 240 Climbing Minneapolis Center
09:53AM 40.1236 -96.8114 261° West 413 475 34,500 420 Climbing Minneapolis Center
09:54AM 40.1086 -96.9331 261° West 419 482 34,900 540 Climbing Minneapolis Center
09:55AM 40.0839 -97.1133 260° West 421 484 35,700 480 Climbing Minneapolis Center
09:56AM 40.0642 -97.2647 260° West 422 486 36,000 120 Climbing Minneapolis Center
09:57AM 40.0433 -97.4244 260° West 422 486 36,000  Level Minneapolis Center
09:58AM 40.0225 -97.5747 260° West 421 484 36,000  Level Minneapolis Center
09:59AM 40.0022 -97.7250 260° West 420 483 36,000  Level Minneapolis Center
10:00AM 39.9767 -97.9061 260° West 421 484 36,000  Level Minneapolis Center
10:01AM 39.9561 -98.0569 260° West 422 486 36,000  Level Minneapolis Center
10:02AM 39.9358 -98.2081 260° West 422 486 36,000  Level Minneapolis Center
10:03AM 39.9186 -98.3272 259° West 420 483 36,000  Level Minneapolis Center
10:04AM 39.8922 -98.5061 259° West 418 481 36,000  Level Minneapolis Center
10:05AM 39.8703 -98.6567 259° West 421 484 36,000  Level Minneapolis Center
10:06AM 39.8461 -98.8253 259° West 422 486 36,000  Level Minneapolis Center
10:07AM 39.8314 -98.9303 260° West 426 490 36,000  Level Denver Center
10:08AM 39.8089 -99.0819 259° West 427 491 36,000  Level Denver Center
10:09AM 39.7853 -99.2350 259° West 430 495 36,000  Level Denver Center
10:10AM 39.7628 -99.3883 259° West 430 495 36,000  Level Denver Center
10:11AM 39.7353 -99.5700 259° West 427 491 36,000  Level Denver Center
10:12AM 39.7117 -99.7217 259° West 428 493 36,000  Level Denver Center
10:13AM 39.6881 -99.8731 259° West 427 491 36,000  Level Denver Center
10:14AM 39.6653 -100.0175 258° West 420 483 36,000  Level Denver Center
10:15AM 39.6389 -100.1822 258° West 418 481 36,000 -60 Level Denver Center
10:16AM 39.6167 -100.3203 258° West 410 472 35,900  Descending Denver Center
10:17AM 39.5944 -100.4628 259° West 415 478 36,000  Climbing Denver Center
10:18AM 39.5661 -100.6272 257° West 418 481 36,000  Level Denver Center
10:19AM 39.5442 -100.7697 259° West 419 482 36,000  Level Denver Center
10:21AM 39.5164 -100.9344 258° West 419 482 36,000  Level Denver Center
10:22AM 39.4922 -101.0764 258° West 421 484 36,000  Level Denver Center
10:23AM 39.4644 -101.2408 258° West 420 483 36,000  Level Denver Center
10:24AM 39.4408 -101.3808 258° West 418 481 36,000  Level Denver Center
10:25AM 39.4172 -101.5231 258° West 422 486 36,000  Level Denver Center
10:26AM 39.3858 -101.6858 256° West 421 484 36,000  Level Denver Center
10:27AM 39.3389 -101.8206 246° West 430 495 36,000  Level Denver Center
10:28AM 39.2811 -101.9697 243° Southwest 429 494 36,000  Level Denver Center
10:29AM 39.2308 -102.1000 244° Southwest 426 490 36,000  Level Denver Center
10:30AM 39.1728 -102.2508 244° Southwest 422 486 36,000  Level Denver Center
10:31AM 39.1222 -102.3783 243° Southwest 420 483 36,000  Level Denver Center
10:32AM 39.0636 -102.5289 243° Southwest 421 484 36,000  Level Denver Center
10:33AM 39.0139 -102.6556 243° Southwest 418 481 36,000  Level Denver Center
10:34AM 38.9564 -102.8019 243° Southwest 413 475 36,000  Level Denver Center
10:35AM 38.9056 -102.9269 242° Southwest 413 475 36,000  Level Denver Center
10:36AM 38.8475 -103.0742 243° Southwest 413 475 36,000  Level Denver Center
10:37AM 38.7819 -103.2408 243° Southwest 411 473 36,000  Level Denver Center
10:38AM 38.7314 -103.3664 243° Southwest 413 475 36,000  Level Denver Center
10:39AM 38.6714 -103.5114 242° Southwest 414 476 36,000  Level Denver Center
10:40AM 38.6211 -103.6392 243° Southwest 417 480 36,000  Level Denver Center
10:41AM 38.5694 -103.7622 242° Southwest 414 476 36,000  Level Denver Center
10:42AM 38.5097 -103.9069 242° Southwest 413 475 36,000  Level Denver Center
10:44AM 38.4422 -104.0728 243° Southwest 413 475 36,000  Level Denver Center
10:45AM 38.3914 -104.1961 242° Southwest 412 474 36,000  Level Denver Center
10:46AM 38.3314 -104.3397 242° Southwest 412 474 36,000  Level Denver Center
10:47AM 38.2839 -104.4639 244° Southwest 411 473 36,000  Level Denver Center
10:48AM 38.2422 -104.6156 251° West 409 471 36,000  Level Denver Center
10:49AM 38.2044 -104.7456 250° West 409 471 36,000  Level Denver Center
10:50AM 38.1619 -104.8958 250° West 407 468 36,000  Level Denver Center
10:51AM 38.1267 -105.0239 251° West 405 466 36,000  Level Denver Center
10:52AM 38.0831 -105.1739 250° West 405 466 36,000  Level Denver Center
10:53AM 38.0453 -105.3028 250° West 406 467 36,000 -60 Level Denver Center
10:54AM 38.0022 -105.4506 250° West 403 464 35,900  Descending Denver Center
10:55AM 37.9650 -105.5783 250° West 404 465 36,000  Climbing Denver Center
10:56AM 37.9281 -105.7058 250° West 403 464 36,000  Level Denver Center
10:57AM 37.8828 -105.8558 249° West 408 470 36,000  Level Denver Center
10:58AM 37.8447 -105.9842 249° West 409 471 36,000  Level Denver Center
10:59AM 37.8008 -106.1336 250° West 407 468 36,000  Level Denver Center
11:00AM 37.7575 -106.2742 249° West 408 470 36,000  Level Denver Center
11:01AM 37.7192 -106.4019 249° West 407 468 36,000  Level Denver Center
11:02AM 37.6747 -106.5531 250° West 410 472 36,000  Level Denver Center
11:03AM 37.6361 -106.6806 249° West 408 470 36,000  Level Denver Center
11:04AM 37.5903 -106.8289 249° West 407 468 36,000  Level Denver Center
11:05AM 37.5500 -106.9572 248° West 410 472 36,000  Level Denver Center
11:06AM 37.5050 -107.1061 249° West 408 470 36,000  Level Denver Center
11:07AM 37.4647 -107.2342 248° West 410 472 36,000  Level Denver Center
11:08AM 37.4206 -107.3811 249° West 405 466 36,000  Level Denver Center
11:09AM 37.3814 -107.5056 248° West 403 464 36,000  Level Denver Center
11:11AM 37.3350 -107.6503 248° West 402 463 36,000  Level Denver Center
11:12AM 37.2953 -107.7742 248° West 400 460 36,000  Level Denver Center
11:13AM 37.2553 -107.8992 248° West 401 461 36,000  Level Denver Center
11:14AM 37.2106 -108.0444 249° West 400 460 36,000  Level Denver Center
11:15AM 37.1708 -108.1669 248° West 399 459 36,000  Level Denver Center
11:16AM 37.1247 -108.3114 248° West 400 460 36,000  Level Denver Center
11:17AM 37.0844 -108.4350 248° West 400 460 36,000  Level Denver Center
11:18AM 37.0369 -108.5803 248° West 404 465 36,000  Level Denver Center
11:19AM 36.9978 -108.7033 248° West 402 463 36,000  Level Denver Center
11:20AM 36.9511 -108.8450 248° West 396 456 36,000  Level Denver Center
11:21AM 36.9108 -108.9669 248° West 397 457 36,000  Level Denver Center
11:22AM 36.8653 -109.1075 248° West 394 453 36,000  Level Denver Center
11:23AM 36.8253 -109.2256 247° West 389 448 36,000  Level Denver Center
11:24AM 36.7781 -109.3658 247° West 392 451 36,000  Level Denver Center
11:25AM 36.7386 -109.4850 248° West 390 449 36,000  Level Denver Center
11:26AM 36.6917 -109.6250 247° West 392 451 36,000  Level Denver Center
11:27AM 36.6500 -109.7444 247° West 394 453 36,000  Level Denver Center
11:28AM 36.6031 -109.8847 247° West 394 453 36,000  Level Denver Center
11:29AM 36.5631 -110.0025 247° West 390 449 36,000  Level Denver Center
11:30AM 36.5164 -110.1400 247° West 387 445 36,000  Level Denver Center
11:31AM 36.4767 -110.2561 247° West 385 443 36,000  Level Denver Center
11:32AM 36.4308 -110.3928 247° West 384 442 36,000  Level Denver Center
11:33AM 36.3908 -110.5111 247° West 386 444 36,000  Level Denver Center
11:34AM 36.3428 -110.6497 247° West 389 448 36,000  Level Denver Center
11:35AM 36.3003 -110.7681 246° West 392 451 36,000  Level Denver Center
11:36AM 36.2531 -110.9036 247° West 388 447 36,000  Level Denver Center
11:37AM 36.2125 -111.0192 247° West 385 443 36,000  Level Denver Center
11:38AM 36.1719 -111.1331 246° West 382 440 36,000 -60 Level Denver Center
11:39AM 36.1261 -111.2656 247° West 378 435 35,900  Descending Denver Center
11:41AM 36.0822 -111.3781 244° Southwest 378 435 36,000  Climbing Denver Center
11:42AM 36.0283 -111.5089 243° Southwest 379 436 36,000  Level Denver Center
11:43AM 35.9808 -111.6231 243° Southwest 384 442 36,000  Level Denver Center
11:43AM 35.9522 -111.6844 240° Southwest 385 443 36,000  Level Los Angeles Center
11:44AM 35.9044 -111.8014 243° Southwest 385 443 36,000  Level Los Angeles Center
11:45AM 35.8469 -111.9425 243° Southwest 386 444 36,000  Level Los Angeles Center
11:46AM 35.7989 -112.0603 243° Southwest 387 445 36,000  Level Los Angeles Center
11:47AM 35.7478 -112.1803 242° Southwest 387 445 36,000  Level Los Angeles Center
11:48AM 35.7017 -112.2919 243° Southwest 382 440 36,000  Level Los Angeles Center
11:49AM 35.6547 -112.4081 244° Southwest 382 440 36,000  Level Los Angeles Center
11:50AM 35.6064 -112.5247 243° Southwest 383 441 36,000  Level Los Angeles Center
11:51AM 35.5444 -112.6706 242° Southwest 385 443 36,000  Level Los Angeles Center
11:52AM 35.4953 -112.7883 243° Southwest 387 445 36,000  Level Los Angeles Center
11:53AM 35.4472 -112.9064 243° Southwest 387 445 36,000  Level Los Angeles Center
11:54AM 35.3933 -113.0242 241° Southwest 390 449 36,000  Level Los Angeles Center
11:56AM 35.3447 -113.1422 243° Southwest 389 448 36,000  Level Los Angeles Center
11:57AM 35.2947 -113.2592 242° Southwest 387 445 36,000  Level Los Angeles Center
11:58AM 35.2442 -113.3761 242° Southwest 383 441 36,000  Level Los Angeles Center
11:59AM 35.1939 -113.4919 242° Southwest 386 444 36,000  Level Los Angeles Center
12:00PM 35.1369 -113.6303 243° Southwest 384 442 36,000  Level Los Angeles Center
12:01PM 35.0878 -113.7439 242° Southwest 381 438 36,000  Level Los Angeles Center
12:02PM 35.0381 -113.8583 242° Southwest 383 441 36,000  Level Los Angeles Center
12:03PM 34.9850 -113.9725 240° Southwest 382 440 36,000  Level Los Angeles Center
12:04PM 34.9361 -114.0881 243° Southwest 384 442 36,000  Level Los Angeles Center
12:05PM 34.8761 -114.2250 242° Southwest 382 440 36,000  Level Los Angeles Center
12:06PM 34.8253 -114.3392 242° Southwest 384 442 36,000  Level Los Angeles Center
12:07PM 34.7756 -114.4528 242° Southwest 381 438 36,000  Level Los Angeles Center
12:08PM 34.7242 -114.5672 241° Southwest 384 442 36,000  Level Los Angeles Center
12:09PM 34.6731 -114.6797 241° Southwest 380 437 36,000  Level Los Angeles Center
12:10PM 34.6194 -114.8003 242° Southwest 382 440 36,000 -60 Level Los Angeles Center
12:11PM 34.5686 -114.9133 241° Southwest 381 438 35,900 -480 Descending Los Angeles Center
12:12PM 34.5264 -115.0292 246° West 378 435 35,100 -1,020 Descending Los Angeles Center
12:13PM 34.4794 -115.1683 248° West 375 432 33,900 -960 Descending Los Angeles Center
12:14PM 34.4389 -115.2861 247° West 376 433 33,000 -900 Descending Los Angeles Center
12:15PM 34.3906 -115.4278 248° West 380 437 31,900 -1,020 Descending Los Angeles Center
12:16PM 34.3514 -115.5442 248° West 378 435 30,900 -1,020 Descending Los Angeles Center
12:17PM 34.3106 -115.6586 247° West 374 430 29,900 -1,020 Descending Los Angeles Center
12:18PM 34.2639 -115.7917 247° West 361 415 28,800 -1,020 Descending Los Angeles Center
12:20PM 34.2244 -115.9056 247° West 362 417 27,800 -900 Descending Los Angeles Center
12:21PM 34.1850 -116.0161 247° West 360 414 27,000 -780 Descending Los Angeles Center
12:22PM 34.1461 -116.1269 247° West 361 415 26,300 -1,260 Descending Los Angeles Center
12:23PM 34.1089 -116.2342 247° West 358 412 24,500 -1,620 Descending Los Angeles Center
12:24PM 34.0714 -116.3394 247° West 349 402 23,000 -1,740 Descending Los Angeles Center
12:25PM 34.0253 -116.4692 247° West 350 403 21,000 -1,980 Descending Los Angeles Center
12:26PM 33.9878 -116.5750 247° West 347 399 19,000 -1,920 Descending Los Angeles Center
12:27PM 33.9508 -116.6769 246° West 339 390 17,100 -1,800 Descending Los Angeles Center
12:28PM 33.9156 -116.7753 247° West 331 381 15,300 -1,500 Descending Los Angeles Center
12:29PM 33.8936 -116.8747 255° West 314 361 14,000 -1,680 Descending Los Angeles Center
12:30PM 33.8833 -116.9833 264° West 307 353 12,100 -1,080 Descending Southern California TRACON
12:31PM 33.8667 -117.0833 259° West 307 353 12,000 -600 Descending Southern California TRACON
12:32PM 33.8500 -117.1833 259° West 302 348 10,900 -1,200 Descending Southern California TRACON
12:33PM 33.8333 -117.2833 259° West 287 330 9,700 -1,380 Descending Southern California TRACON
12:34PM 33.8167 -117.3667 256° West 272 313 8,200 -900 Descending Southern California TRACON
12:35PM 33.8000 -117.4500 256° West 272 313 8,000 -300 Descending Southern California TRACON
12:36PM 33.7833 -117.5500 259° West 255 293 7,700 -360 Descending Southern California TRACON
12:36PM 33.7869 -117.5522 333° Northwest 264 304 7,600 -1,080 Descending Los Angeles Center
12:37PM 33.8028 -117.6325 283° West 212 244 6,300 -1,440 Descending Los Angeles Center
12:38PM 33.8167 -117.6833 288° West 204 235 5,200 -1,500 Descending Southern California TRACON
12:39PM 33.8333 -117.7333 292° West 215 247 3,800 -1,200 Descending Southern California TRACON
12:40PM 33.8000 -117.7833 231° Southwest 195 224 2,900 -960 Descending Southern California TRACON
12:41PM 33.7667 -117.8167 220° Southwest 178 205 1,900 -1,020 Descending Southern California TRACON